createdAt,value
2018-04-29T00:00:02.049Z,2.20
2018-04-29T00:02:29.562Z,2.28
2018-04-29T00:04:56.990Z,2.12
2018-04-29T00:07:24.411Z,2.03
2018-04-29T00:09:51.838Z,1.75
2018-04-29T00:12:20.023Z,2.17
2018-04-29T00:14:48.247Z,1.77
2018-04-29T00:17:15.667Z,2.05
2018-04-29T00:19:43.090Z,2.12
2018-04-29T00:22:10.547Z,2.22
2018-04-29T00:24:38.023Z,2.25
2018-04-29T00:27:05.442Z,2.03
2018-04-29T00:29:32.866Z,2.05
2018-04-29T00:32:00.286Z,2.12
2018-04-29T00:34:27.793Z,2.03
2018-04-29T00:36:55.267Z,2.37
2018-04-29T00:39:22.690Z,2.58
2018-04-29T00:41:50.350Z,1.67
2018-04-29T00:44:17.754Z,2.03
2018-04-29T00:46:45.942Z,1.90
2018-04-29T00:49:14.150Z,2.17
2018-04-29T00:51:53.705Z,1.90
2018-04-29T00:54:21.130Z,2.00
2018-04-29T00:56:48.550Z,2.00
2018-04-29T00:59:15.978Z,2.35
2018-04-29T01:01:44.157Z,2.00
2018-04-29T01:04:13.102Z,1.92
2018-04-29T01:06:40.519Z,2.22
2018-04-29T01:09:08.047Z,2.35
2018-04-29T01:11:35.458Z,2.00
2018-04-29T01:14:02.889Z,2.15
2018-04-29T01:16:31.371Z,2.20
2018-04-29T01:18:58.794Z,2.55
2018-04-29T01:21:26.214Z,2.58
2018-04-29T01:23:53.681Z,1.98
2018-04-29T01:26:21.150Z,2.15
2018-04-29T01:28:48.567Z,2.40
2018-04-29T01:31:15.999Z,2.20
2018-04-29T01:33:43.413Z,2.20
2018-04-29T01:36:10.838Z,2.20
2018-04-29T01:38:38.264Z,2.08
2018-04-29T01:41:06.582Z,1.98
2018-04-29T01:43:34.055Z,2.60
2018-04-29T01:46:01.528Z,1.70
2018-04-29T01:48:28.937Z,2.45
2018-04-29T01:50:56.465Z,2.30
2018-04-29T01:53:23.935Z,1.80
2018-04-29T01:55:51.358Z,1.98
2018-04-29T01:58:18.877Z,1.95
2018-04-29T02:00:46.356Z,2.45
2018-04-29T02:03:13.761Z,2.03
2018-04-29T02:05:41.185Z,2.87
2018-04-29T02:08:08.650Z,2.72
2018-04-29T02:10:36.127Z,2.40
2018-04-29T02:13:03.537Z,2.87
2018-04-29T02:15:30.966Z,3.00
2018-04-29T02:17:58.386Z,2.53
2018-04-29T02:20:25.894Z,2.22
2018-04-29T02:22:53.390Z,2.67
2018-04-29T02:25:20.817Z,2.87
2018-04-29T02:27:49.026Z,2.65
2018-04-29T02:30:16.454Z,2.45
2018-04-29T02:32:44.656Z,2.78
2018-04-29T02:35:12.846Z,2.58
2018-04-29T02:37:41.056Z,2.78
2018-04-29T02:40:08.534Z,3.17
2018-04-29T02:42:35.996Z,2.37
2018-04-29T02:45:03.471Z,2.35
2018-04-29T02:47:30.885Z,3.10
2018-04-29T02:49:58.407Z,2.65
2018-04-29T02:52:25.830Z,2.78
2018-04-29T02:54:53.257Z,2.28
2018-04-29T02:57:20.711Z,2.83
2018-04-29T02:59:48.134Z,2.85
2018-04-29T03:02:15.553Z,2.30
2018-04-29T03:04:42.971Z,2.92
2018-04-29T03:07:10.504Z,2.87
2018-04-29T03:09:37.922Z,2.33
2018-04-29T03:12:05.346Z,2.85
2018-04-29T03:14:32.773Z,3.22
2018-04-29T03:17:00.958Z,3.28
2018-04-29T03:19:29.142Z,3.00
2018-04-29T03:21:57.358Z,2.90
2018-04-29T03:24:24.827Z,2.70
2018-04-29T03:26:52.302Z,2.85
2018-04-29T03:29:19.714Z,3.35
2018-04-29T03:31:47.910Z,3.55
2018-04-29T03:34:15.424Z,3.70
2018-04-29T03:36:42.846Z,3.40
2018-04-29T03:39:11.217Z,3.28
2018-04-29T03:41:38.762Z,2.58
2018-04-29T03:44:06.223Z,2.97
2018-04-29T03:46:33.695Z,2.95
2018-04-29T03:49:02.019Z,3.05
2018-04-29T03:51:29.451Z,3.53
2018-04-29T03:53:56.925Z,3.12
2018-04-29T03:56:24.350Z,3.33
2018-04-29T03:59:03.702Z,3.42
2018-04-29T04:01:51.284Z,2.72
2018-04-29T04:04:11.301Z,3.40
2018-04-29T04:06:38.710Z,2.87
2018-04-29T04:09:07.077Z,3.95
2018-04-29T04:11:34.610Z,3.30
2018-04-29T04:14:02.079Z,3.70
2018-04-29T04:16:29.505Z,4.50
2018-04-29T04:18:57.027Z,4.40
2018-04-29T04:21:24.499Z,3.47
2018-04-29T04:23:51.966Z,4.20
2018-04-29T04:26:19.394Z,3.80
2018-04-29T04:28:47.588Z,4.60
2018-04-29T04:31:15.809Z,3.95
2018-04-29T04:33:43.222Z,4.47
2018-04-29T04:36:10.654Z,4.87
2018-04-29T04:38:38.120Z,4.90
2018-04-29T04:41:05.687Z,4.70
2018-04-29T04:43:33.110Z,5.60
2018-04-29T04:46:00.550Z,6.47
2018-04-29T04:48:27.970Z,6.75
2018-04-29T04:50:56.167Z,6.65
2018-04-29T04:53:23.646Z,6.00
2018-04-29T04:55:51.070Z,5.40
2018-04-29T04:58:18.494Z,4.75
2018-04-29T05:00:45.922Z,6.28
2018-04-29T05:03:14.116Z,6.45
2018-04-29T05:05:42.304Z,6.85
2018-04-29T05:08:10.489Z,6.85
2018-04-29T05:10:38.683Z,6.62
2018-04-29T05:13:06.936Z,7.50
2018-04-29T05:15:34.479Z,6.78
2018-04-29T05:18:01.933Z,7.28
2018-04-29T05:20:29.362Z,6.78
2018-04-29T05:22:56.870Z,7.15
2018-04-29T05:25:24.290Z,7.32
2018-04-29T05:27:51.723Z,8.02
2018-04-29T05:30:19.177Z,7.55
2018-04-29T05:32:46.656Z,7.60
2018-04-29T05:35:14.074Z,8.05
2018-04-29T05:37:41.595Z,6.90
2018-04-29T05:40:09.066Z,6.75
2018-04-29T05:42:36.494Z,5.85
2018-04-29T05:45:04.720Z,7.18
2018-04-29T05:47:32.152Z,6.85
2018-04-29T05:49:59.659Z,7.12
2018-04-29T05:52:27.081Z,7.90
2018-04-29T05:54:54.609Z,6.87
2018-04-29T05:57:22.034Z,7.55
2018-04-29T05:59:50.254Z,8.02
2018-04-29T06:02:17.682Z,7.68
2018-04-29T06:04:45.107Z,8.07
2018-04-29T06:07:12.527Z,8.93
2018-04-29T06:09:40.750Z,8.52
2018-04-29T06:12:08.183Z,9.95
2018-04-29T06:14:36.405Z,9.07
2018-04-29T06:17:03.831Z,9.10
2018-04-29T06:19:31.255Z,9.52
2018-04-29T06:21:58.707Z,8.73
2018-04-29T06:24:26.134Z,9.38
2018-04-29T06:26:53.647Z,10.25
2018-04-29T06:29:21.123Z,9.13
2018-04-29T06:31:48.621Z,8.65
2018-04-29T06:34:16.021Z,9.27
2018-04-29T06:36:43.530Z,9.13
2018-04-29T06:39:11.927Z,9.23
2018-04-29T06:41:39.358Z,9.80
2018-04-29T06:44:07.555Z,9.77
2018-04-29T06:46:35.751Z,8.75
2018-04-29T06:49:03.930Z,9.13
2018-04-29T06:51:32.130Z,8.77
2018-04-29T06:53:59.554Z,8.07
2018-04-29T06:56:26.975Z,8.02
2018-04-29T06:58:54.405Z,7.75
2018-04-29T07:01:21.829Z,7.53
2018-04-29T07:03:49.290Z,8.05
2018-04-29T07:06:16.759Z,8.30
2018-04-29T07:08:44.178Z,8.77
2018-04-29T07:11:11.610Z,7.65
2018-04-29T07:13:39.067Z,7.53
2018-04-29T07:16:06.546Z,8.82
2018-04-29T07:18:33.970Z,8.68
2018-04-29T07:21:02.167Z,8.52
2018-04-29T07:23:30.354Z,8.48
2018-04-29T07:25:58.624Z,8.52
2018-04-29T07:28:25.989Z,7.95
2018-04-29T07:30:54.939Z,8.10
2018-04-29T07:33:22.409Z,8.63
2018-04-29T07:35:49.830Z,9.40
2018-04-29T07:38:18.034Z,8.82
2018-04-29T07:40:46.225Z,9.57
2018-04-29T07:43:14.419Z,9.07
2018-04-29T07:45:42.623Z,9.70
2018-04-29T07:48:10.055Z,9.30
2018-04-29T07:50:37.486Z,10.07
2018-04-29T07:53:04.913Z,9.68
2018-04-29T07:55:32.410Z,9.70
2018-04-29T07:57:59.834Z,10.10
2018-04-29T08:00:28.023Z,9.23
2018-04-29T08:02:56.218Z,9.05
2018-04-29T08:05:24.410Z,8.35
2018-04-29T08:07:52.606Z,9.48
2018-04-29T08:10:20.090Z,8.60
2018-04-29T08:12:47.522Z,8.88
2018-04-29T08:15:15.711Z,8.95
2018-04-29T08:17:43.938Z,9.10
2018-04-29T08:20:11.398Z,9.60
2018-04-29T08:22:38.905Z,8.88
2018-04-29T08:25:06.338Z,9.38
2018-04-29T08:27:33.772Z,9.32
2018-04-29T08:30:01.240Z,8.73
2018-04-29T08:32:28.667Z,8.32
2018-04-29T08:34:56.072Z,8.90
2018-04-29T08:37:23.586Z,9.13
2018-04-29T08:39:51.062Z,9.02
2018-04-29T08:42:18.515Z,8.93
2018-04-29T08:44:46.694Z,7.55
2018-04-29T08:47:14.893Z,8.95
2018-04-29T08:49:42.378Z,8.25
2018-04-29T08:52:09.850Z,7.65
2018-04-29T08:54:37.266Z,7.72
2018-04-29T08:57:05.503Z,6.90
2018-04-29T08:59:32.926Z,7.40
2018-04-29T09:02:00.442Z,7.10
2018-04-29T09:04:27.857Z,6.62
2018-04-29T09:06:55.391Z,5.80
2018-04-29T09:09:22.803Z,6.25
2018-04-29T09:11:51.031Z,5.97
2018-04-29T09:14:18.456Z,5.75
2018-04-29T09:16:46.065Z,6.00
2018-04-29T09:19:13.442Z,6.03
2018-04-29T09:21:40.865Z,5.57
2018-04-29T09:24:08.297Z,6.35
2018-04-29T09:26:35.713Z,5.50
2018-04-29T09:29:04.958Z,6.43
2018-04-29T09:31:32.435Z,6.07
2018-04-29T09:33:59.855Z,6.70
2018-04-29T09:36:27.280Z,7.12
2018-04-29T09:38:54.710Z,7.28
2018-04-29T09:41:22.894Z,8.18
2018-04-29T09:43:51.086Z,7.95
2018-04-29T09:46:19.303Z,8.43
2018-04-29T09:48:46.743Z,8.30
2018-04-29T09:51:14.959Z,7.53
2018-04-29T09:53:42.390Z,8.27
2018-04-29T09:56:09.903Z,7.70
2018-04-29T09:58:37.334Z,8.23
2018-04-29T10:01:11.195Z,8.18
2018-04-29T10:03:38.658Z,9.05
2018-04-29T10:06:06.083Z,8.13
2018-04-29T10:08:34.314Z,8.98
2018-04-29T10:11:01.729Z,8.10
2018-04-29T10:13:29.255Z,7.03
2018-04-29T10:15:56.723Z,6.97
2018-04-29T10:18:24.195Z,6.68
2018-04-29T10:20:51.658Z,5.57
2018-04-29T10:23:19.043Z,6.32
2018-04-29T10:25:46.497Z,5.53
2018-04-29T10:28:13.968Z,4.25
2018-04-29T10:30:41.383Z,5.03
2018-04-29T10:33:10.317Z,5.43
2018-04-29T10:35:38.510Z,4.22
2018-04-29T10:38:06.718Z,4.30
2018-04-29T10:40:34.138Z,3.70
2018-04-29T10:43:01.566Z,3.72
2018-04-29T10:45:29.021Z,3.60
2018-04-29T10:47:56.450Z,3.58
2018-04-29T10:50:23.962Z,4.03
2018-04-29T10:52:51.387Z,3.70
2018-04-29T10:55:18.807Z,3.45
2018-04-29T10:57:46.271Z,3.83
2018-04-29T11:00:13.689Z,3.67
2018-04-29T11:02:41.119Z,3.53
2018-04-29T11:05:08.542Z,3.28
2018-04-29T11:07:35.971Z,3.03
2018-04-29T11:10:03.396Z,3.03
2018-04-29T11:12:31.577Z,3.20
2018-04-29T11:14:59.789Z,2.35
2018-04-29T11:17:27.210Z,2.78
2018-04-29T11:19:54.639Z,2.47
2018-04-29T11:22:22.073Z,2.05
2018-04-29T11:24:50.254Z,2.60
2018-04-29T11:27:18.469Z,2.47
2018-04-29T11:29:45.882Z,3.00
2018-04-29T11:32:13.306Z,2.87
2018-04-29T11:34:40.721Z,2.55
2018-04-29T11:37:08.150Z,2.20
2018-04-29T11:39:35.611Z,2.53
2018-04-29T11:42:03.042Z,2.47
2018-04-29T11:44:30.471Z,2.75
2018-04-29T11:46:57.886Z,2.58
2018-04-29T11:49:25.303Z,2.75
2018-04-29T11:51:52.719Z,2.95
2018-04-29T11:54:20.150Z,2.70
2018-04-29T11:56:47.599Z,3.05
2018-04-29T11:59:15.067Z,2.28
2018-04-29T12:01:42.534Z,2.78
2018-04-29T12:04:09.957Z,2.70
2018-04-29T12:06:37.378Z,3.00
2018-04-29T12:09:04.831Z,2.62
2018-04-29T12:11:32.255Z,5.22
2018-04-29T12:13:59.686Z,3.08
2018-04-29T12:16:27.166Z,2.78
2018-04-29T12:18:54.575Z,2.83
2018-04-29T12:21:21.998Z,2.90
2018-04-29T12:23:49.420Z,3.10
2018-04-29T12:26:17.610Z,3.58
2018-04-29T12:28:45.835Z,3.30
2018-04-29T12:31:13.246Z,3.40
2018-04-29T12:33:40.682Z,3.25
2018-04-29T12:36:08.095Z,3.70
2018-04-29T12:38:35.617Z,3.10
2018-04-29T12:41:03.998Z,3.15
2018-04-29T12:43:31.494Z,2.95
2018-04-29T12:45:58.919Z,3.28
2018-04-29T12:48:27.126Z,2.97
2018-04-29T12:50:54.600Z,2.83
2018-04-29T12:53:22.066Z,3.30
2018-04-29T12:55:49.489Z,3.40
2018-04-29T12:58:16.913Z,3.05
2018-04-29T13:00:44.374Z,3.30
2018-04-29T13:03:11.798Z,3.22
2018-04-29T13:05:39.326Z,2.92
2018-04-29T13:08:06.742Z,3.33
2018-04-29T13:10:34.254Z,3.58
2018-04-29T13:13:01.721Z,3.20
2018-04-29T13:15:29.145Z,3.12
2018-04-29T13:17:56.578Z,3.12
2018-04-29T13:20:23.990Z,3.17
2018-04-29T13:22:52.205Z,2.80
2018-04-29T13:25:19.693Z,2.70
2018-04-29T13:27:47.156Z,2.50
2018-04-29T13:30:14.578Z,3.28
2018-04-29T13:32:42.103Z,2.80
2018-04-29T13:35:09.521Z,3.15
2018-04-29T13:37:36.949Z,3.53
2018-04-29T13:40:04.366Z,3.37
2018-04-29T13:42:32.562Z,3.60
2018-04-29T13:45:00.742Z,3.62
2018-04-29T13:47:28.929Z,3.37
2018-04-29T13:49:57.126Z,3.37
2018-04-29T13:52:25.342Z,3.45
2018-04-29T13:54:52.806Z,3.40
2018-04-29T13:57:20.275Z,3.50
2018-04-29T13:59:47.705Z,3.12
2018-04-29T14:02:15.126Z,3.53
2018-04-29T14:04:42.567Z,3.00
2018-04-29T14:07:10.840Z,3.35
2018-04-29T14:09:38.938Z,3.80
2018-04-29T14:12:07.255Z,3.03
2018-04-29T14:14:34.716Z,2.97
2018-04-29T14:17:02.129Z,3.00
2018-04-29T14:19:29.558Z,3.00
2018-04-29T14:21:56.977Z,2.87
2018-04-29T14:24:24.490Z,2.72
2018-04-29T14:26:51.969Z,3.15
2018-04-29T14:29:19.389Z,3.17
2018-04-29T14:31:46.905Z,3.03
2018-04-29T14:34:14.378Z,2.97
2018-04-29T14:36:41.817Z,3.10
2018-04-29T14:39:09.316Z,2.90
2018-04-29T14:41:36.729Z,3.03
2018-04-29T14:44:04.154Z,3.28
2018-04-29T14:46:31.620Z,2.80
2018-04-29T14:48:59.146Z,2.10
2018-04-29T14:51:26.567Z,3.22
2018-04-29T14:53:53.993Z,3.00
2018-04-29T14:56:23.238Z,2.55
2018-04-29T14:58:50.662Z,3.12
2018-04-29T15:01:18.137Z,2.75
2018-04-29T15:03:45.547Z,3.20
2018-04-29T15:06:13.017Z,2.87
2018-04-29T15:08:40.491Z,2.75
2018-04-29T15:11:07.959Z,2.20
2018-04-29T15:13:35.386Z,2.40
2018-04-29T15:16:02.835Z,2.62
2018-04-29T15:18:42.138Z,2.60
2018-04-29T15:21:09.555Z,2.70
2018-04-29T15:23:36.978Z,2.80
2018-04-29T15:26:04.403Z,2.62
2018-04-29T15:28:31.922Z,2.40
2018-04-29T15:30:59.395Z,2.78
2018-04-29T15:33:26.813Z,2.30
2018-04-29T15:35:54.334Z,2.72
2018-04-29T15:38:21.759Z,2.28
2018-04-29T15:40:49.278Z,2.70
2018-04-29T15:43:16.742Z,3.00
2018-04-29T15:45:44.159Z,2.97
2018-04-29T15:48:11.590Z,2.97
2018-04-29T15:50:39.006Z,2.78
2018-04-29T15:53:06.434Z,2.65
2018-04-29T15:55:33.858Z,2.70
2018-04-29T15:58:02.058Z,3.00
2018-04-29T16:00:30.233Z,2.55
2018-04-29T16:02:58.418Z,3.20
2018-04-29T16:05:26.611Z,2.78
2018-04-29T16:07:54.794Z,3.20
2018-04-29T16:10:22.992Z,2.92
2018-04-29T16:12:50.476Z,2.90
2018-04-29T16:15:17.906Z,3.80
2018-04-29T16:17:45.334Z,4.32
2018-04-29T16:20:12.757Z,3.12
2018-04-29T16:22:40.945Z,3.00
2018-04-29T16:25:09.145Z,3.20
2018-04-29T16:27:36.558Z,3.05
2018-04-29T16:30:03.983Z,2.67
2018-04-29T16:32:31.410Z,3.33
2018-04-29T16:34:58.856Z,2.85
2018-04-29T16:37:26.282Z,2.97
2018-04-29T16:39:54.470Z,2.92
2018-04-29T16:42:22.663Z,2.87
2018-04-29T16:44:50.142Z,2.58
2018-04-29T16:47:17.614Z,2.83
2018-04-29T16:49:45.082Z,2.90
2018-04-29T16:52:12.510Z,2.60
2018-04-29T16:54:39.931Z,2.97
2018-04-29T16:57:07.350Z,2.72
2018-04-29T16:59:34.774Z,3.37
2018-04-29T17:02:02.195Z,2.45
2018-04-29T17:04:30.418Z,2.87
2018-04-29T17:06:57.882Z,2.78
2018-04-29T17:09:25.382Z,2.62
2018-04-29T17:11:52.822Z,2.50
2018-04-29T17:14:20.247Z,2.50
2018-04-29T17:16:47.664Z,2.53
2018-04-29T17:19:15.090Z,2.37
2018-04-29T17:21:42.603Z,3.15
2018-04-29T17:24:10.075Z,3.15
2018-04-29T17:26:37.550Z,2.62
2018-04-29T17:29:05.890Z,2.80
2018-04-29T17:31:33.454Z,2.87
2018-04-29T17:34:00.975Z,3.40
2018-04-29T17:36:28.406Z,2.80
2018-04-29T17:38:55.839Z,2.83
2018-04-29T17:41:23.291Z,2.80
2018-04-29T17:43:50.750Z,3.37
2018-04-29T17:46:18.167Z,3.00
2018-04-29T17:48:45.590Z,3.20
2018-04-29T17:51:13.010Z,3.30
2018-04-29T17:53:40.437Z,3.00
2018-04-29T17:56:07.911Z,3.10
2018-04-29T17:58:35.371Z,3.05
2018-04-29T18:01:02.786Z,2.42
2018-04-29T18:03:31.738Z,3.17
2018-04-29T18:05:59.213Z,2.87
2018-04-29T18:08:26.630Z,2.60
2018-04-29T18:11:00.170Z,2.62
2018-04-29T18:13:28.354Z,3.20
2018-04-29T18:15:56.567Z,3.20
2018-04-29T18:18:24.062Z,3.08
2018-04-29T18:20:51.485Z,2.87
2018-04-29T18:23:19.715Z,3.03
2018-04-29T18:25:47.141Z,2.90
2018-04-29T18:28:15.351Z,2.58
2018-04-29T18:30:42.783Z,3.17
2018-04-29T18:33:10.289Z,3.50
2018-04-29T18:35:37.763Z,3.10
2018-04-29T18:38:05.186Z,2.97
2018-04-29T18:40:32.618Z,3.45
2018-04-29T18:43:00.090Z,3.87
2018-04-29T18:45:27.514Z,3.20
2018-04-29T18:47:55.702Z,3.30
2018-04-29T18:50:23.902Z,3.40
2018-04-29T18:52:51.382Z,3.30
2018-04-29T18:55:18.812Z,3.67
2018-04-29T18:57:46.254Z,3.10
2018-04-29T19:00:13.795Z,3.12
2018-04-29T19:02:41.250Z,3.47
2018-04-29T19:05:09.447Z,3.25
2018-04-29T19:07:37.018Z,3.28
2018-04-29T19:10:04.442Z,3.85
2018-04-29T19:12:33.374Z,3.08
2018-04-29T19:15:01.579Z,3.03
2018-04-29T19:17:28.994Z,3.08
2018-04-29T19:19:56.523Z,3.12
2018-04-29T19:22:24.006Z,3.28
2018-04-29T19:24:51.426Z,3.17
2018-04-29T19:27:19.651Z,3.35
2018-04-29T19:29:47.074Z,3.70
2018-04-29T19:32:14.490Z,3.75
2018-04-29T19:34:41.922Z,3.42
2018-04-29T19:37:10.126Z,3.40
2018-04-29T19:39:37.562Z,3.70
2018-04-29T19:42:04.984Z,3.28
2018-04-29T19:44:32.406Z,3.17
2018-04-29T19:46:59.832Z,3.22
2018-04-29T19:49:27.263Z,3.83
2018-04-29T19:51:55.478Z,3.30
2018-04-29T19:54:22.945Z,3.12
2018-04-29T19:56:50.362Z,3.47
2018-04-29T19:59:17.782Z,3.40
2018-04-29T20:01:45.204Z,3.40
2018-04-29T20:04:12.670Z,3.72
2018-04-29T20:06:40.099Z,3.78
2018-04-29T20:09:07.562Z,3.70
2018-04-29T20:11:35.057Z,4.12
2018-04-29T20:14:02.454Z,3.40
2018-04-29T20:16:29.870Z,4.07
2018-04-29T20:18:57.290Z,3.62
2018-04-29T20:21:24.710Z,3.55
2018-04-29T20:23:52.166Z,4.00
2018-04-29T20:26:20.466Z,4.00
2018-04-29T20:28:47.883Z,3.83
2018-04-29T20:31:15.306Z,3.90
2018-04-29T20:33:42.734Z,4.20
2018-04-29T20:36:10.958Z,3.92
2018-04-29T20:38:38.431Z,4.35
2018-04-29T20:41:05.858Z,4.00
2018-04-29T20:43:33.371Z,4.12
2018-04-29T20:46:00.803Z,4.12
2018-04-29T20:48:29.052Z,4.32
2018-04-29T20:50:57.178Z,3.97
2018-04-29T20:53:25.370Z,3.85
2018-04-29T20:55:53.613Z,4.37
2018-04-29T20:58:21.032Z,4.43
2018-04-29T21:00:49.218Z,3.83
2018-04-29T21:03:17.454Z,3.85
2018-04-29T21:05:44.879Z,4.05
2018-04-29T21:08:13.087Z,4.20
2018-04-29T21:10:40.514Z,4.68
2018-04-29T21:13:08.036Z,3.83
2018-04-29T21:15:35.454Z,4.03
2018-04-29T21:18:03.637Z,3.97
2018-04-29T21:20:31.068Z,4.57
2018-04-29T21:22:58.484Z,4.05
2018-04-29T21:25:26.703Z,4.18
2018-04-29T21:27:54.122Z,4.28
2018-04-29T21:30:21.558Z,4.62
2018-04-29T21:32:49.001Z,3.97
2018-04-29T21:35:16.496Z,4.25
2018-04-29T21:37:43.974Z,4.40
2018-04-29T21:40:11.402Z,4.30
2018-04-29T21:42:39.614Z,4.40
2018-04-29T21:45:07.051Z,4.65
2018-04-29T21:47:35.278Z,4.90
2018-04-29T21:50:02.739Z,4.00
2018-04-29T21:52:30.151Z,4.18
2018-04-29T21:54:59.098Z,4.20
2018-04-29T21:57:27.293Z,4.43
2018-04-29T21:59:54.774Z,4.20
2018-04-29T22:02:22.234Z,4.65
2018-04-29T22:04:49.658Z,3.92
2018-04-29T22:07:17.174Z,4.12
2018-04-29T22:09:44.601Z,4.50
2018-04-29T22:12:12.118Z,4.37
2018-04-29T22:14:39.554Z,4.35
2018-04-29T22:17:07.771Z,4.40
2018-04-29T22:19:35.239Z,3.92
2018-04-29T22:22:02.658Z,4.65
2018-04-29T22:24:30.082Z,4.30
2018-04-29T22:26:57.510Z,4.72
2018-04-29T22:29:25.020Z,4.90
2018-04-29T22:31:52.442Z,4.32
2018-04-29T22:34:19.857Z,4.60
2018-04-29T22:36:47.286Z,4.60
2018-04-29T22:39:14.702Z,4.55
2018-04-29T22:41:42.154Z,5.00
2018-04-29T22:44:10.354Z,4.70
2018-04-29T22:46:37.821Z,4.20
2018-04-29T22:49:05.294Z,4.53
2018-04-29T22:51:32.718Z,4.85
2018-04-29T22:54:00.139Z,5.15
2018-04-29T22:56:27.598Z,4.57
2018-04-29T22:58:55.010Z,4.90
2018-04-29T23:01:23.946Z,4.57
2018-04-29T23:03:52.214Z,4.60
2018-04-29T23:06:19.581Z,4.12
2018-04-29T23:08:47.007Z,4.37
2018-04-29T23:11:14.430Z,4.00
2018-04-29T23:13:42.620Z,4.12
2018-04-29T23:16:10.823Z,4.22
2018-04-29T23:18:39.005Z,4.68
2018-04-29T23:21:07.194Z,3.87
2018-04-29T23:23:34.682Z,3.60
2018-04-29T23:26:02.155Z,4.07
2018-04-29T23:28:29.570Z,4.30
2018-04-29T23:30:57.090Z,3.55
2018-04-29T23:33:24.505Z,3.95
2018-04-29T23:35:51.930Z,3.95
2018-04-29T23:38:19.346Z,3.92
2018-04-29T23:40:46.866Z,4.82
2018-04-29T23:43:14.282Z,5.05
2018-04-29T23:45:41.807Z,4.87
2018-04-29T23:48:09.228Z,5.03
2018-04-29T23:50:37.592Z,4.97
2018-04-29T23:53:05.036Z,4.10
2018-04-29T23:55:32.457Z,4.12
2018-04-29T23:58:00.691Z,2.78
